sensor_id;sensor_type;location;lat;lon;timestamp;P1;P2;P0
80396;PMS5003;69721;55.894;-3.052;2024-01-06T00:01:49;7;5;
80396;PMS5003;69721;55.894;-3.052;2024-01-06T00:04:14;8;6;
80396;PMS5003;69721;55.894;-3.052;2024-01-06T00:06:40;11;9;
80396;PMS5003;69721;55.894;-3.052;2024-01-06T00:09:05;7;6;
80396;PMS5003;69721;55.894;-3.052;2024-01-06T00:11:31;4;4;
80396;PMS5003;69721;55.894;-3.052;2024-01-06T00:13:56;8;4;
80396;PMS5003;69721;55.894;-3.052;2024-01-06T00:16:22;6;6;
80396;PMS5003;69721;55.894;-3.052;2024-01-06T00:18:47;6;6;
80396;PMS5003;69721;55.894;-3.052;2024-01-06T00:21:13;3;3;
80396;PMS5003;69721;55.894;-3.052;2024-01-06T00:23:39;6;4;
80396;PMS5003;69721;55.894;-3.052;2024-01-06T00:26:04;5;5;
80396;PMS5003;69721;55.894;-3.052;2024-01-06T00:28:29;8;5;
80396;PMS5003;69721;55.894;-3.052;2024-01-06T00:30:55;6;3;
80396;PMS5003;69721;55.894;-3.052;2024-01-06T00:33:21;5;3;
80396;PMS5003;69721;55.894;-3.052;2024-01-06T00:35:46;9;6;
80396;PMS5003;69721;55.894;-3.052;2024-01-06T00:38:12;6;4;
80396;PMS5003;69721;55.894;-3.052;2024-01-06T00:40:37;11;8;
80396;PMS5003;69721;55.894;-3.052;2024-01-06T00:43:03;3;2;
80396;PMS5003;69721;55.894;-3.052;2024-01-06T00:45:28;7;4;
80396;PMS5003;69721;55.894;-3.052;2024-01-06T00:47:54;4;3;
80396;PMS5003;69721;55.894;-3.052;2024-01-06T00:50:20;4;2;
80396;PMS5003;69721;55.894;-3.052;2024-01-06T00:52:46;5;3;
80396;PMS5003;69721;55.894;-3.052;2024-01-06T00:55:11;3;3;
80396;PMS5003;69721;55.894;-3.052;2024-01-06T00:57:36;3;3;
80396;PMS5003;69721;55.894;-3.052;2024-01-06T01:00:02;3;3;
80396;PMS5003;69721;55.894;-3.052;2024-01-06T01:02:27;4;2;
80396;PMS5003;69721;55.894;-3.052;2024-01-06T01:04:53;3;2;
80396;PMS5003;69721;55.894;-3.052;2024-01-06T01:07:19;2;2;
80396;PMS5003;69721;55.894;-3.052;2024-01-06T01:09:44;3;3;
80396;PMS5003;69721;55.894;-3.052;2024-01-06T01:12:10;2;2;
80396;PMS5003;69721;55.894;-3.052;2024-01-06T01:14:35;4;3;
80396;PMS5003;69721;55.894;-3.052;2024-01-06T01:17:02;2;2;
80396;PMS5003;69721;55.894;-3.052;2024-01-06T01:19:27;4;2;
80396;PMS5003;69721;55.894;-3.052;2024-01-06T01:21:53;2;2;
80396;PMS5003;69721;55.894;-3.052;2024-01-06T01:24:19;3;3;
80396;PMS5003;69721;55.894;-3.052;2024-01-06T01:26:44;3;2;
80396;PMS5003;69721;55.894;-3.052;2024-01-06T01:29:10;6;2;
80396;PMS5003;69721;55.894;-3.052;2024-01-06T01:31:35;2;2;
80396;PMS5003;69721;55.894;-3.052;2024-01-06T01:34:01;6;4;
80396;PMS5003;69721;55.894;-3.052;2024-01-06T01:36:26;2;2;
80396;PMS5003;69721;55.894;-3.052;2024-01-06T01:38:52;4;2;
80396;PMS5003;69721;55.894;-3.052;2024-01-06T01:41:18;6;2;
80396;PMS5003;69721;55.894;-3.052;2024-01-06T01:43:44;2;2;
80396;PMS5003;69721;55.894;-3.052;2024-01-06T01:46:09;5;2;
80396;PMS5003;69721;55.894;-3.052;2024-01-06T01:48:34;2;2;
80396;PMS5003;69721;55.894;-3.052;2024-01-06T01:51:00;3;3;
80396;PMS5003;69721;55.894;-3.052;2024-01-06T01:53:26;4;3;
80396;PMS5003;69721;55.894;-3.052;2024-01-06T01:55:51;4;3;
80396;PMS5003;69721;55.894;-3.052;2024-01-06T01:58:16;2;2;
80396;PMS5003;69721;55.894;-3.052;2024-01-06T02:00:42;2;2;
80396;PMS5003;69721;55.894;-3.052;2024-01-06T02:03:08;6;2;
80396;PMS5003;69721;55.894;-3.052;2024-01-06T02:05:33;1;1;
80396;PMS5003;69721;55.894;-3.052;2024-01-06T02:07:59;3;3;
80396;PMS5003;69721;55.894;-3.052;2024-01-06T02:10:24;1;1;
80396;PMS5003;69721;55.894;-3.052;2024-01-06T02:12:50;3;1;
80396;PMS5003;69721;55.894;-3.052;2024-01-06T02:15:16;2;2;
80396;PMS5003;69721;55.894;-3.052;2024-01-06T02:17:41;1;1;
80396;PMS5003;69721;55.894;-3.052;2024-01-06T02:20:07;3;3;
80396;PMS5003;69721;55.894;-3.052;2024-01-06T02:22:32;3;2;
80396;PMS5003;69721;55.894;-3.052;2024-01-06T02:24:57;6;3;
80396;PMS5003;69721;55.894;-3.052;2024-01-06T02:27:23;3;3;
80396;PMS5003;69721;55.894;-3.052;2024-01-06T02:29:48;4;4;
80396;PMS5003;69721;55.894;-3.052;2024-01-06T02:32:14;2;2;
80396;PMS5003;69721;55.894;-3.052;2024-01-06T02:34:40;2;1;
80396;PMS5003;69721;55.894;-3.052;2024-01-06T02:37:05;5;4;
80396;PMS5003;69721;55.894;-3.052;2024-01-06T02:39:31;2;2;
80396;PMS5003;69721;55.894;-3.052;2024-01-06T02:41:56;3;1;
80396;PMS5003;69721;55.894;-3.052;2024-01-06T02:44:22;5;2;
80396;PMS5003;69721;55.894;-3.052;2024-01-06T02:46:48;4;3;
80396;PMS5003;69721;55.894;-3.052;2024-01-06T02:49:13;3;3;
80396;PMS5003;69721;55.894;-3.052;2024-01-06T02:51:39;3;1;
80396;PMS5003;69721;55.894;-3.052;2024-01-06T02:54:04;5;3;
80396;PMS5003;69721;55.894;-3.052;2024-01-06T02:56:30;3;2;
80396;PMS5003;69721;55.894;-3.052;2024-01-06T02:58:56;2;1;
80396;PMS5003;69721;55.894;-3.052;2024-01-06T03:01:21;4;2;
80396;PMS5003;69721;55.894;-3.052;2024-01-06T03:03:48;5;3;
80396;PMS5003;69721;55.894;-3.052;2024-01-06T03:06:13;1;1;
80396;PMS5003;69721;55.894;-3.052;2024-01-06T03:08:39;3;1;
80396;PMS5003;69721;55.894;-3.052;2024-01-06T03:11:04;4;3;
80396;PMS5003;69721;55.894;-3.052;2024-01-06T03:13:30;1;1;
80396;PMS5003;69721;55.894;-3.052;2024-01-06T03:15:55;3;3;
80396;PMS5003;69721;55.894;-3.052;2024-01-06T03:18:21;2;2;
80396;PMS5003;69721;55.894;-3.052;2024-01-06T03:20:47;1;1;
80396;PMS5003;69721;55.894;-3.052;2024-01-06T03:23:12;2;2;
80396;PMS5003;69721;55.894;-3.052;2024-01-06T03:25:38;3;2;
80396;PMS5003;69721;55.894;-3.052;2024-01-06T03:28:03;1;1;
80396;PMS5003;69721;55.894;-3.052;2024-01-06T03:30:29;4;2;
80396;PMS5003;69721;55.894;-3.052;2024-01-06T03:32:54;3;2;
80396;PMS5003;69721;55.894;-3.052;2024-01-06T03:35:21;4;4;
80396;PMS5003;69721;55.894;-3.052;2024-01-06T03:37:46;2;2;
80396;PMS5003;69721;55.894;-3.052;2024-01-06T03:40:12;3;2;
80396;PMS5003;69721;55.894;-3.052;2024-01-06T03:42:38;3;2;
80396;PMS5003;69721;55.894;-3.052;2024-01-06T03:45:04;4;2;
80396;PMS5003;69721;55.894;-3.052;2024-01-06T03:47:29;2;2;
80396;PMS5003;69721;55.894;-3.052;2024-01-06T03:49:54;3;3;
80396;PMS5003;69721;55.894;-3.052;2024-01-06T03:52:20;4;2;
80396;PMS5003;69721;55.894;-3.052;2024-01-06T03:54:46;2;2;
80396;PMS5003;69721;55.894;-3.052;2024-01-06T03:57:11;2;2;
80396;PMS5003;69721;55.894;-3.052;2024-01-06T03:59:37;3;2;
80396;PMS5003;69721;55.894;-3.052;2024-01-06T04:02:02;2;1;
80396;PMS5003;69721;55.894;-3.052;2024-01-06T04:04:28;1;1;
80396;PMS5003;69721;55.894;-3.052;2024-01-06T04:06:53;2;2;
80396;PMS5003;69721;55.894;-3.052;2024-01-06T04:09:19;2;2;
80396;PMS5003;69721;55.894;-3.052;2024-01-06T04:11:44;5;2;
80396;PMS5003;69721;55.894;-3.052;2024-01-06T04:14:10;3;3;
80396;PMS5003;69721;55.894;-3.052;2024-01-06T04:16:36;3;3;
80396;PMS5003;69721;55.894;-3.052;2024-01-06T04:19:02;2;1;
80396;PMS5003;69721;55.894;-3.052;2024-01-06T04:21:28;4;3;
80396;PMS5003;69721;55.894;-3.052;2024-01-06T04:23:53;2;2;
80396;PMS5003;69721;55.894;-3.052;2024-01-06T04:26:19;1;1;
80396;PMS5003;69721;55.894;-3.052;2024-01-06T04:28:44;1;1;
80396;PMS5003;69721;55.894;-3.052;2024-01-06T04:31:10;2;2;
80396;PMS5003;69721;55.894;-3.052;2024-01-06T04:33:35;1;1;
80396;PMS5003;69721;55.894;-3.052;2024-01-06T04:36:01;1;1;
80396;PMS5003;69721;55.894;-3.052;2024-01-06T04:38:26;3;1;
80396;PMS5003;69721;55.894;-3.052;2024-01-06T04:40:52;6;1;
80396;PMS5003;69721;55.894;-3.052;2024-01-06T04:43:18;5;2;
80396;PMS5003;69721;55.894;-3.052;2024-01-06T04:45:43;1;1;
80396;PMS5003;69721;55.894;-3.052;2024-01-06T04:48:09;3;2;
80396;PMS5003;69721;55.894;-3.052;2024-01-06T04:50:34;4;2;
80396;PMS5003;69721;55.894;-3.052;2024-01-06T04:53:00;3;3;
80396;PMS5003;69721;55.894;-3.052;2024-01-06T04:55:25;2;2;
80396;PMS5003;69721;55.894;-3.052;2024-01-06T04:57:51;2;2;
80396;PMS5003;69721;55.894;-3.052;2024-01-06T05:00:17;1;1;
80396;PMS5003;69721;55.894;-3.052;2024-01-06T05:02:42;1;1;
80396;PMS5003;69721;55.894;-3.052;2024-01-06T05:05:08;1;1;
80396;PMS5003;69721;55.894;-3.052;2024-01-06T05:07:33;2;0;
80396;PMS5003;69721;55.894;-3.052;2024-01-06T05:09:59;5;3;
80396;PMS5003;69721;55.894;-3.052;2024-01-06T05:12:24;1;1;
80396;PMS5003;69721;55.894;-3.052;2024-01-06T05:14:50;1;1;
80396;PMS5003;69721;55.894;-3.052;2024-01-06T05:17:15;3;3;
80396;PMS5003;69721;55.894;-3.052;2024-01-06T05:19:41;2;2;
80396;PMS5003;69721;55.894;-3.052;2024-01-06T05:22:06;4;2;
80396;PMS5003;69721;55.894;-3.052;2024-01-06T05:24:32;2;2;
80396;PMS5003;69721;55.894;-3.052;2024-01-06T05:26:58;2;2;
80396;PMS5003;69721;55.894;-3.052;2024-01-06T05:29:23;6;3;
80396;PMS5003;69721;55.894;-3.052;2024-01-06T05:31:51;5;2;
80396;PMS5003;69721;55.894;-3.052;2024-01-06T05:34:16;1;1;
80396;PMS5003;69721;55.894;-3.052;2024-01-06T05:36:42;2;2;
80396;PMS5003;69721;55.894;-3.052;2024-01-06T05:39:07;3;2;
80396;PMS5003;69721;55.894;-3.052;2024-01-06T05:41:37;3;2;
80396;PMS5003;69721;55.894;-3.052;2024-01-06T05:43:59;2;2;
80396;PMS5003;69721;55.894;-3.052;2024-01-06T05:46:25;3;1;
80396;PMS5003;69721;55.894;-3.052;2024-01-06T05:48:51;2;2;
80396;PMS5003;69721;55.894;-3.052;2024-01-06T05:51:16;2;0;
80396;PMS5003;69721;55.894;-3.052;2024-01-06T05:53:42;2;2;
80396;PMS5003;69721;55.894;-3.052;2024-01-06T05:56:07;1;1;
80396;PMS5003;69721;55.894;-3.052;2024-01-06T05:58:33;1;1;
80396;PMS5003;69721;55.894;-3.052;2024-01-06T06:00:59;1;1;
80396;PMS5003;69721;55.894;-3.052;2024-01-06T06:03:24;1;1;
80396;PMS5003;69721;55.894;-3.052;2024-01-06T06:05:50;3;2;
80396;PMS5003;69721;55.894;-3.052;2024-01-06T06:08:16;3;3;
80396;PMS5003;69721;55.894;-3.052;2024-01-06T06:10:41;1;1;
80396;PMS5003;69721;55.894;-3.052;2024-01-06T06:13:07;2;2;
80396;PMS5003;69721;55.894;-3.052;2024-01-06T06:15:32;3;1;
80396;PMS5003;69721;55.894;-3.052;2024-01-06T06:17:58;6;3;
80396;PMS5003;69721;55.894;-3.052;2024-01-06T06:20:23;1;1;
80396;PMS5003;69721;55.894;-3.052;2024-01-06T06:22:49;3;2;
80396;PMS5003;69721;55.894;-3.052;2024-01-06T06:25:15;1;1;
80396;PMS5003;69721;55.894;-3.052;2024-01-06T06:27:40;4;2;
80396;PMS5003;69721;55.894;-3.052;2024-01-06T06:30:06;3;2;
80396;PMS5003;69721;55.894;-3.052;2024-01-06T06:32:31;3;1;
80396;PMS5003;69721;55.894;-3.052;2024-01-06T06:34:57;6;3;
80396;PMS5003;69721;55.894;-3.052;2024-01-06T06:37:23;3;1;
80396;PMS5003;69721;55.894;-3.052;2024-01-06T06:39:53;3;3;
80396;PMS5003;69721;55.894;-3.052;2024-01-06T06:42:14;1;1;
80396;PMS5003;69721;55.894;-3.052;2024-01-06T06:44:39;1;1;
80396;PMS5003;69721;55.894;-3.052;2024-01-06T06:47:05;2;2;
80396;PMS5003;69721;55.894;-3.052;2024-01-06T06:49:30;4;2;
80396;PMS5003;69721;55.894;-3.052;2024-01-06T06:51:57;2;2;
80396;PMS5003;69721;55.894;-3.052;2024-01-06T06:54:23;3;1;
80396;PMS5003;69721;55.894;-3.052;2024-01-06T06:56:48;2;1;
80396;PMS5003;69721;55.894;-3.052;2024-01-06T06:59:14;1;1;
80396;PMS5003;69721;55.894;-3.052;2024-01-06T07:01:39;2;2;
80396;PMS5003;69721;55.894;-3.052;2024-01-06T07:04:05;1;1;
80396;PMS5003;69721;55.894;-3.052;2024-01-06T07:06:31;3;1;
80396;PMS5003;69721;55.894;-3.052;2024-01-06T07:08:57;2;1;
80396;PMS5003;69721;55.894;-3.052;2024-01-06T07:11:23;2;1;
80396;PMS5003;69721;55.894;-3.052;2024-01-06T07:13:49;2;2;
80396;PMS5003;69721;55.894;-3.052;2024-01-06T07:16:14;5;2;
80396;PMS5003;69721;55.894;-3.052;2024-01-06T07:18:39;2;1;
80396;PMS5003;69721;55.894;-3.052;2024-01-06T07:21:05;3;1;
80396;PMS5003;69721;55.894;-3.052;2024-01-06T07:23:31;5;1;
80396;PMS5003;69721;55.894;-3.052;2024-01-06T07:25:56;2;1;
80396;PMS5003;69721;55.894;-3.052;2024-01-06T07:28:22;1;1;
80396;PMS5003;69721;55.894;-3.052;2024-01-06T07:30:47;1;1;
80396;PMS5003;69721;55.894;-3.052;2024-01-06T07:33:13;4;3;
80396;PMS5003;69721;55.894;-3.052;2024-01-06T07:35:39;2;0;
80396;PMS5003;69721;55.894;-3.052;2024-01-06T07:38:04;4;2;
80396;PMS5003;69721;55.894;-3.052;2024-01-06T07:40:30;1;1;
80396;PMS5003;69721;55.894;-3.052;2024-01-06T07:42:55;1;1;
80396;PMS5003;69721;55.894;-3.052;2024-01-06T07:45:21;2;2;
80396;PMS5003;69721;55.894;-3.052;2024-01-06T07:47:47;4;3;
80396;PMS5003;69721;55.894;-3.052;2024-01-06T07:50:12;3;3;
80396;PMS5003;69721;55.894;-3.052;2024-01-06T07:52:38;3;2;
80396;PMS5003;69721;55.894;-3.052;2024-01-06T07:55:03;13;10;
80396;PMS5003;69721;55.894;-3.052;2024-01-06T07:57:29;7;7;
80396;PMS5003;69721;55.894;-3.052;2024-01-06T07:59:54;6;4;
80396;PMS5003;69721;55.894;-3.052;2024-01-06T08:02:20;2;2;
80396;PMS5003;69721;55.894;-3.052;2024-01-06T08:04:45;4;4;
80396;PMS5003;69721;55.894;-3.052;2024-01-06T08:07:11;4;3;
80396;PMS5003;69721;55.894;-3.052;2024-01-06T08:09:36;3;2;
80396;PMS5003;69721;55.894;-3.052;2024-01-06T08:12:02;4;2;
80396;PMS5003;69721;55.894;-3.052;2024-01-06T08:14:28;4;4;
80396;PMS5003;69721;55.894;-3.052;2024-01-06T08:16:53;3;3;
80396;PMS5003;69721;55.894;-3.052;2024-01-06T08:19:19;4;3;
80396;PMS5003;69721;55.894;-3.052;2024-01-06T08:21:44;4;3;
80396;PMS5003;69721;55.894;-3.052;2024-01-06T08:24:10;8;4;
80396;PMS5003;69721;55.894;-3.052;2024-01-06T08:26:36;3;3;
80396;PMS5003;69721;55.894;-3.052;2024-01-06T08:29:01;1;1;
80396;PMS5003;69721;55.894;-3.052;2024-01-06T08:31:27;2;2;
80396;PMS5003;69721;55.894;-3.052;2024-01-06T08:33:53;3;2;
80396;PMS5003;69721;55.894;-3.052;2024-01-06T08:36:19;3;2;
80396;PMS5003;69721;55.894;-3.052;2024-01-06T08:38:44;4;2;
80396;PMS5003;69721;55.894;-3.052;2024-01-06T08:41:10;3;2;
80396;PMS5003;69721;55.894;-3.052;2024-01-06T08:43:35;1;1;
80396;PMS5003;69721;55.894;-3.052;2024-01-06T08:46:01;2;2;
80396;PMS5003;69721;55.894;-3.052;2024-01-06T08:48:26;6;5;
80396;PMS5003;69721;55.894;-3.052;2024-01-06T08:50:52;3;1;
80396;PMS5003;69721;55.894;-3.052;2024-01-06T08:53:18;1;1;
80396;PMS5003;69721;55.894;-3.052;2024-01-06T08:55:43;2;2;
80396;PMS5003;69721;55.894;-3.052;2024-01-06T08:58:09;2;2;
80396;PMS5003;69721;55.894;-3.052;2024-01-06T09:00:34;3;3;
80396;PMS5003;69721;55.894;-3.052;2024-01-06T09:03:00;3;3;
80396;PMS5003;69721;55.894;-3.052;2024-01-06T09:05:26;4;3;
80396;PMS5003;69721;55.894;-3.052;2024-01-06T09:07:51;2;2;
80396;PMS5003;69721;55.894;-3.052;2024-01-06T09:10:17;5;3;
80396;PMS5003;69721;55.894;-3.052;2024-01-06T09:12:42;5;2;
80396;PMS5003;69721;55.894;-3.052;2024-01-06T09:15:08;4;2;
80396;PMS5003;69721;55.894;-3.052;2024-01-06T09:17:33;4;4;
80396;PMS5003;69721;55.894;-3.052;2024-01-06T09:19:59;4;3;
80396;PMS5003;69721;55.894;-3.052;2024-01-06T09:22:25;4;3;
80396;PMS5003;69721;55.894;-3.052;2024-01-06T09:24:50;3;3;
80396;PMS5003;69721;55.894;-3.052;2024-01-06T09:27:16;2;2;
80396;PMS5003;69721;55.894;-3.052;2024-01-06T09:29:41;6;3;
80396;PMS5003;69721;55.894;-3.052;2024-01-06T09:32:06;2;2;
80396;PMS5003;69721;55.894;-3.052;2024-01-06T09:34:32;4;2;
80396;PMS5003;69721;55.894;-3.052;2024-01-06T09:36:58;3;3;
80396;PMS5003;69721;55.894;-3.052;2024-01-06T09:39:23;3;3;
80396;PMS5003;69721;55.894;-3.052;2024-01-06T09:41:49;5;3;
80396;PMS5003;69721;55.894;-3.052;2024-01-06T09:44:14;5;4;
80396;PMS5003;69721;55.894;-3.052;2024-01-06T09:46:40;8;5;
80396;PMS5003;69721;55.894;-3.052;2024-01-06T09:49:06;6;3;
80396;PMS5003;69721;55.894;-3.052;2024-01-06T09:51:31;6;5;
80396;PMS5003;69721;55.894;-3.052;2024-01-06T09:53:57;3;3;
80396;PMS5003;69721;55.894;-3.052;2024-01-06T09:56:22;5;3;
80396;PMS5003;69721;55.894;-3.052;2024-01-06T09:58:48;4;2;
80396;PMS5003;69721;55.894;-3.052;2024-01-06T10:01:13;4;2;
80396;PMS5003;69721;55.894;-3.052;2024-01-06T10:03:41;5;3;
80396;PMS5003;69721;55.894;-3.052;2024-01-06T10:06:06;6;4;
80396;PMS5003;69721;55.894;-3.052;2024-01-06T10:08:32;6;5;
80396;PMS5003;69721;55.894;-3.052;2024-01-06T10:10:57;11;7;
80396;PMS5003;69721;55.894;-3.052;2024-01-06T10:13:23;7;4;
80396;PMS5003;69721;55.894;-3.052;2024-01-06T10:15:49;10;5;
80396;PMS5003;69721;55.894;-3.052;2024-01-06T10:18:14;11;5;
80396;PMS5003;69721;55.894;-3.052;2024-01-06T10:20:40;6;5;
80396;PMS5003;69721;55.894;-3.052;2024-01-06T10:23:05;11;6;
80396;PMS5003;69721;55.894;-3.052;2024-01-06T10:25:31;5;5;
80396;PMS5003;69721;55.894;-3.052;2024-01-06T10:27:56;5;5;
80396;PMS5003;69721;55.894;-3.052;2024-01-06T10:30:22;7;7;
80396;PMS5003;69721;55.894;-3.052;2024-01-06T10:32:48;7;5;
80396;PMS5003;69721;55.894;-3.052;2024-01-06T10:35:13;6;6;
80396;PMS5003;69721;55.894;-3.052;2024-01-06T10:37:41;9;7;
80396;PMS5003;69721;55.894;-3.052;2024-01-06T10:40:06;9;8;
80396;PMS5003;69721;55.894;-3.052;2024-01-06T10:42:30;8;6;
80396;PMS5003;69721;55.894;-3.052;2024-01-06T10:44:55;6;4;
80396;PMS5003;69721;55.894;-3.052;2024-01-06T10:47:21;9;5;
80396;PMS5003;69721;55.894;-3.052;2024-01-06T10:49:46;5;4;
80396;PMS5003;69721;55.894;-3.052;2024-01-06T10:52:12;8;4;
80396;PMS5003;69721;55.894;-3.052;2024-01-06T10:54:38;6;4;
80396;PMS5003;69721;55.894;-3.052;2024-01-06T10:57:03;5;4;
80396;PMS5003;69721;55.894;-3.052;2024-01-06T10:59:29;3;3;
80396;PMS5003;69721;55.894;-3.052;2024-01-06T11:01:55;7;4;
80396;PMS5003;69721;55.894;-3.052;2024-01-06T11:04:20;5;3;
80396;PMS5003;69721;55.894;-3.052;2024-01-06T11:06:46;3;3;
80396;PMS5003;69721;55.894;-3.052;2024-01-06T11:09:13;3;3;
80396;PMS5003;69721;55.894;-3.052;2024-01-06T11:11:37;4;3;
80396;PMS5003;69721;55.894;-3.052;2024-01-06T11:16:33;8;6;
80396;PMS5003;69721;55.894;-3.052;2024-01-06T11:18:53;4;4;
80396;PMS5003;69721;55.894;-3.052;2024-01-06T11:21:19;6;3;
80396;PMS5003;69721;55.894;-3.052;2024-01-06T11:23:44;4;3;
80396;PMS5003;69721;55.894;-3.052;2024-01-06T11:26:10;4;4;
80396;PMS5003;69721;55.894;-3.052;2024-01-06T11:31:05;3;3;
80396;PMS5003;69721;55.894;-3.052;2024-01-06T11:33:27;3;3;
80396;PMS5003;69721;55.894;-3.052;2024-01-06T11:35:52;4;3;
80396;PMS5003;69721;55.894;-3.052;2024-01-06T11:38:18;4;4;
80396;PMS5003;69721;55.894;-3.052;2024-01-06T11:40:44;3;3;
80396;PMS5003;69721;55.894;-3.052;2024-01-06T11:43:10;4;4;
80396;PMS5003;69721;55.894;-3.052;2024-01-06T11:45:35;7;5;
80396;PMS5003;69721;55.894;-3.052;2024-01-06T11:48:01;4;4;
80396;PMS5003;69721;55.894;-3.052;2024-01-06T11:50:27;3;3;
80396;PMS5003;69721;55.894;-3.052;2024-01-06T11:52:52;5;3;
80396;PMS5003;69721;55.894;-3.052;2024-01-06T11:55:18;6;4;
80396;PMS5003;69721;55.894;-3.052;2024-01-06T11:57:44;3;1;
80396;PMS5003;69721;55.894;-3.052;2024-01-06T12:00:10;5;5;
80396;PMS5003;69721;55.894;-3.052;2024-01-06T12:02:35;5;4;
80396;PMS5003;69721;55.894;-3.052;2024-01-06T12:05:00;6;3;
80396;PMS5003;69721;55.894;-3.052;2024-01-06T12:07:26;4;2;
80396;PMS5003;69721;55.894;-3.052;2024-01-06T12:09:59;9;7;
80396;PMS5003;69721;55.894;-3.052;2024-01-06T12:12:17;15;8;
80396;PMS5003;69721;55.894;-3.052;2024-01-06T12:14:42;9;6;
80396;PMS5003;69721;55.894;-3.052;2024-01-06T12:17:08;10;7;
80396;PMS5003;69721;55.894;-3.052;2024-01-06T12:19:33;9;8;
80396;PMS5003;69721;55.894;-3.052;2024-01-06T12:21:59;9;6;
80396;PMS5003;69721;55.894;-3.052;2024-01-06T12:24:26;8;5;
80396;PMS5003;69721;55.894;-3.052;2024-01-06T12:26:50;6;4;
80396;PMS5003;69721;55.894;-3.052;2024-01-06T12:29:16;6;6;
80396;PMS5003;69721;55.894;-3.052;2024-01-06T12:31:41;9;6;
80396;PMS5003;69721;55.894;-3.052;2024-01-06T12:34:06;3;3;
80396;PMS5003;69721;55.894;-3.052;2024-01-06T12:36:31;13;9;
80396;PMS5003;69721;55.894;-3.052;2024-01-06T12:38:57;6;5;
80396;PMS5003;69721;55.894;-3.052;2024-01-06T12:41:22;5;4;
80396;PMS5003;69721;55.894;-3.052;2024-01-06T12:43:48;4;4;
80396;PMS5003;69721;55.894;-3.052;2024-01-06T12:46:13;4;3;
80396;PMS5003;69721;55.894;-3.052;2024-01-06T12:48:39;4;4;
80396;PMS5003;69721;55.894;-3.052;2024-01-06T12:51:04;4;3;
80396;PMS5003;69721;55.894;-3.052;2024-01-06T12:53:30;3;3;
80396;PMS5003;69721;55.894;-3.052;2024-01-06T12:55:56;6;3;
80396;PMS5003;69721;55.894;-3.052;2024-01-06T12:58:21;3;3;
80396;PMS5003;69721;55.894;-3.052;2024-01-06T13:00:47;3;3;
80396;PMS5003;69721;55.894;-3.052;2024-01-06T13:03:12;4;4;
80396;PMS5003;69721;55.894;-3.052;2024-01-06T13:05:38;5;5;
80396;PMS5003;69721;55.894;-3.052;2024-01-06T13:08:03;3;3;
80396;PMS5003;69721;55.894;-3.052;2024-01-06T13:10:29;5;4;
80396;PMS5003;69721;55.894;-3.052;2024-01-06T13:12:54;7;5;
80396;PMS5003;69721;55.894;-3.052;2024-01-06T13:15:20;8;7;
80396;PMS5003;69721;55.894;-3.052;2024-01-06T13:17:45;9;6;
80396;PMS5003;69721;55.894;-3.052;2024-01-06T13:20:11;4;4;
80396;PMS5003;69721;55.894;-3.052;2024-01-06T13:22:37;6;2;
80396;PMS5003;69721;55.894;-3.052;2024-01-06T13:25:03;19;16;
80396;PMS5003;69721;55.894;-3.052;2024-01-06T13:27:28;12;8;
80396;PMS5003;69721;55.894;-3.052;2024-01-06T13:29:53;5;3;
80396;PMS5003;69721;55.894;-3.052;2024-01-06T13:32:19;4;4;
80396;PMS5003;69721;55.894;-3.052;2024-01-06T13:34:44;8;5;
80396;PMS5003;69721;55.894;-3.052;2024-01-06T13:37:10;9;9;
80396;PMS5003;69721;55.894;-3.052;2024-01-06T13:39:35;5;5;
80396;PMS5003;69721;55.894;-3.052;2024-01-06T13:42:01;9;6;
80396;PMS5003;69721;55.894;-3.052;2024-01-06T13:44:26;7;5;
80396;PMS5003;69721;55.894;-3.052;2024-01-06T13:46:52;6;4;
80396;PMS5003;69721;55.894;-3.052;2024-01-06T13:49:17;8;5;
80396;PMS5003;69721;55.894;-3.052;2024-01-06T13:51:43;5;5;
80396;PMS5003;69721;55.894;-3.052;2024-01-06T13:54:09;5;5;
80396;PMS5003;69721;55.894;-3.052;2024-01-06T13:56:34;7;5;
80396;PMS5003;69721;55.894;-3.052;2024-01-06T13:58:59;8;5;
80396;PMS5003;69721;55.894;-3.052;2024-01-06T14:01:25;19;10;
80396;PMS5003;69721;55.894;-3.052;2024-01-06T14:03:51;11;5;
80396;PMS5003;69721;55.894;-3.052;2024-01-06T14:06:16;4;4;
80396;PMS5003;69721;55.894;-3.052;2024-01-06T14:08:42;4;4;
80396;PMS5003;69721;55.894;-3.052;2024-01-06T14:11:07;3;3;
80396;PMS5003;69721;55.894;-3.052;2024-01-06T14:13:33;2;2;
80396;PMS5003;69721;55.894;-3.052;2024-01-06T14:15:58;2;2;
80396;PMS5003;69721;55.894;-3.052;2024-01-06T14:18:24;2;2;
80396;PMS5003;69721;55.894;-3.052;2024-01-06T14:20:49;5;4;
80396;PMS5003;69721;55.894;-3.052;2024-01-06T14:23:15;7;4;
80396;PMS5003;69721;55.894;-3.052;2024-01-06T14:25:40;6;3;
80396;PMS5003;69721;55.894;-3.052;2024-01-06T14:28:06;6;4;
80396;PMS5003;69721;55.894;-3.052;2024-01-06T14:30:31;4;3;
80396;PMS5003;69721;55.894;-3.052;2024-01-06T14:32:57;11;6;
80396;PMS5003;69721;55.894;-3.052;2024-01-06T14:35:22;8;5;
80396;PMS5003;69721;55.894;-3.052;2024-01-06T14:37:48;7;5;
80396;PMS5003;69721;55.894;-3.052;2024-01-06T14:40:13;7;6;
80396;PMS5003;69721;55.894;-3.052;2024-01-06T14:42:39;8;6;
80396;PMS5003;69721;55.894;-3.052;2024-01-06T14:45:04;11;9;
80396;PMS5003;69721;55.894;-3.052;2024-01-06T14:47:29;5;5;
80396;PMS5003;69721;55.894;-3.052;2024-01-06T14:49:55;12;8;
80396;PMS5003;69721;55.894;-3.052;2024-01-06T14:52:21;11;10;
80396;PMS5003;69721;55.894;-3.052;2024-01-06T14:54:46;14;10;
80396;PMS5003;69721;55.894;-3.052;2024-01-06T14:57:12;16;14;
80396;PMS5003;69721;55.894;-3.052;2024-01-06T14:59:37;29;24;
80396;PMS5003;69721;55.894;-3.052;2024-01-06T15:02:03;22;17;
80396;PMS5003;69721;55.894;-3.052;2024-01-06T15:04:29;22;21;
80396;PMS5003;69721;55.894;-3.052;2024-01-06T15:06:55;34;28;
80396;PMS5003;69721;55.894;-3.052;2024-01-06T15:09:20;43;34;
80396;PMS5003;69721;55.894;-3.052;2024-01-06T15:11:45;33;31;
80396;PMS5003;69721;55.894;-3.052;2024-01-06T15:14:11;29;27;
80396;PMS5003;69721;55.894;-3.052;2024-01-06T15:16:37;21;21;
80396;PMS5003;69721;55.894;-3.052;2024-01-06T15:19:03;25;23;
80396;PMS5003;69721;55.894;-3.052;2024-01-06T15:21:28;23;22;
80396;PMS5003;69721;55.894;-3.052;2024-01-06T15:23:53;18;16;
80396;PMS5003;69721;55.894;-3.052;2024-01-06T15:26:21;21;15;
80396;PMS5003;69721;55.894;-3.052;2024-01-06T15:28:44;19;12;
80396;PMS5003;69721;55.894;-3.052;2024-01-06T15:31:10;17;14;
80396;PMS5003;69721;55.894;-3.052;2024-01-06T15:33:35;19;14;
80396;PMS5003;69721;55.894;-3.052;2024-01-06T15:36:01;26;21;
80396;PMS5003;69721;55.894;-3.052;2024-01-06T15:38:27;28;23;
80396;PMS5003;69721;55.894;-3.052;2024-01-06T15:40:53;31;25;
80396;PMS5003;69721;55.894;-3.052;2024-01-06T15:43:18;35;25;
80396;PMS5003;69721;55.894;-3.052;2024-01-06T15:45:43;33;30;
80396;PMS5003;69721;55.894;-3.052;2024-01-06T15:48:09;29;24;
80396;PMS5003;69721;55.894;-3.052;2024-01-06T15:50:34;23;17;
80396;PMS5003;69721;55.894;-3.052;2024-01-06T15:53:00;21;16;
80396;PMS5003;69721;55.894;-3.052;2024-01-06T15:55:25;14;14;
80396;PMS5003;69721;55.894;-3.052;2024-01-06T15:57:51;12;10;
80396;PMS5003;69721;55.894;-3.052;2024-01-06T16:00:16;19;16;
80396;PMS5003;69721;55.894;-3.052;2024-01-06T16:02:41;14;10;
80396;PMS5003;69721;55.894;-3.052;2024-01-06T16:05:07;11;9;
80396;PMS5003;69721;55.894;-3.052;2024-01-06T16:07:32;16;15;
80396;PMS5003;69721;55.894;-3.052;2024-01-06T16:09:58;14;10;
80396;PMS5003;69721;55.894;-3.052;2024-01-06T16:12:23;20;11;
80396;PMS5003;69721;55.894;-3.052;2024-01-06T16:14:49;16;12;
80396;PMS5003;69721;55.894;-3.052;2024-01-06T16:17:14;16;16;
80396;PMS5003;69721;55.894;-3.052;2024-01-06T16:19:39;14;12;
80396;PMS5003;69721;55.894;-3.052;2024-01-06T16:22:05;12;12;
80396;PMS5003;69721;55.894;-3.052;2024-01-06T16:24:30;18;17;